Nearby METAR Reports

 

YSCB - Canberra (civ/Mi, Australia
Distance from station: NNE 21km
Updated: 06/04/2020 12:30
Clear
Clear
 Wind from NW
Wind: NW 22 km/h
Temperature: 17°C
Dew Point: 7°C
Humidity: 52%
Barometer: 1018 hPa
Clouds: Clear
Visibility: 10 km
2020/04/06 02:30 YSCB 060230Z AUTO 32012KT 9999 // NCD 17/07 Q1018 RF00.0/000.0 NOSIG
YCOM - Cooma Snowy Mtns, Australia
Distance from station: S 94km
Updated: 06/04/2020 12:00
Overcast
Overcast
 Wind from SSW
Wind: SSW 17 km/h
Temperature: 12°C
Dew Point: 6°C
Humidity: 67%
Barometer: 1019 hPa
Clouds: Overcast
Visibility: 10 km
Cloud details: Overcast 549 m
2020/04/06 02:00 YCOM 060200Z AUTO 21009KT 9999 // OVC018 12/06 Q1019
 
YSNW - Nowra (aus-Navy), Australia
Distance from station: ENE 140km
Updated: 06/04/2020 12:00
Clear
Clear
 Wind from SSE
Wind: SSE 15 km/h
Temperature: 20°C
Dew Point: 12°C
Humidity: 60%
Barometer: 1017 hPa
Summary: Clear
Visibility: greater than 10 km
2020/04/06 02:00 YSNW 060200Z 16008KT CAVOK 20/12 Q1017 INTER 0200/0500 4000 SHRA BKN015
YSWG - Wagga Wagga(Cv/M, Australia
Distance from station: WNW 153km
Updated: 06/04/2020 12:00
Mostly cloudy
Mostly cloudy
 Wind from SW
Wind: SW 11 km/h
Temperature: 18°C
Dew Point: 9°C
Humidity: 56%
Barometer: 1019 hPa
Clouds: Mostly cloudy
Visibility: 10 km
Cloud details: Mostly cloudy 1067 m
2020/04/06 02:00 YSWG 060200Z 23006KT 210V290 9999 BKN035 18/09 Q1019
 
YMER - Merimbula Arpt, Australia
Distance from station: SSE 177km
Updated: 06/04/2020 12:00
Mostly cloudy
Mostly cloudy
 Wind from WSW
Wind: WSW 13 km/h
Temperature: 20°C
Dew Point: 9°C
Humidity: 49%
Barometer: 1018 hPa
Clouds: Mostly cloudy
Cloud details: Mostly cloudy 2042 m
Mostly cloudy 2347 m
2020/04/06 02:00 YMER 060200Z AUTO 24007KT 190V250 //// // BKN067 BKN077 20/09 Q1018
YMAY - Albury Airport, Australia
Distance from station: WSW 207km
Updated: 06/04/2020 12:00
Partly cloudy
Partly cloudy
 Wind from W
Wind: W 15 km/h
Temperature: 17°C
Dew Point: 8°C
Humidity: 56%
Barometer: 1019 hPa
Clouds: Partly cloudy
Visibility: 10 km
Cloud details: Partly cloudy 1250 m
2020/04/06 02:00 YMAY 060200Z AUTO 28008KT 9999 // SCT041 17/08 Q1019
 
YNAR - Narrandera, Australia
Distance from station: WNW 250km
Updated: 06/04/2020 12:00
Mostly cloudy
Mostly cloudy
 Wind from SW
Wind: SW 11 km/h
Temperature: 18°C
Dew Point: 9°C
Humidity: 56%
Barometer: 1020 hPa
Clouds: Mostly cloudy
Visibility: 10 km
Cloud details: Partly cloudy 1036 m
Mostly cloudy 1433 m
2020/04/06 02:00 YNAR 060200Z AUTO 23006KT 9999 // SCT034 BKN047 18/09 Q1020
YSSY - Sydney Intl Airp, Australia
Distance from station: NE 253km
Updated: 06/04/2020 12:30
Clear
Clear
 Wind from SE
Wind: SE 15 km/h
Temperature: 22°C
Dew Point: 12°C
Humidity: 53%
Barometer: 1017 hPa
Summary: Clear
Visibility: greater than 10 km
2020/04/06 02:30 YSSY 060230Z 14008KT CAVOK 22/12 Q1017 NOSIG
 
YSRI - Richmond (aus-Af, Australia
Distance from station: NE 257km
Updated: 06/04/2020 12:30
Clear
Clear
 Wind from SSE
Wind: SSE 7 km/h
Temperature: 23°C
Dew Point: 12°C
Humidity: 50%
Barometer: 1017 hPa
Clouds: Clear
Visibility: 10 km
2020/04/06 02:30 YSRI 060230Z AUTO 16004KT 130V210 9999 // NCD 23/12 Q1017 RF00.0/000.0
YWGT - Wangaratta Arp, Australia
Distance from station: WSW 274km
Updated: 06/04/2020 12:00
Mostly cloudy
Mostly cloudy
 Wind from WSW
Wind: WSW 17 km/h
Temperature: 16°C
Dew Point: 6°C
Humidity: 52%
Barometer: 1020 hPa
Clouds: Mostly cloudy
Visibility: 10 km
Cloud details: Mostly cloudy 1280 m
2020/04/06 02:00 YWGT 060200Z AUTO 24009KT 200V280 9999 // BKN042 16/06 Q1020
 
YGTH - Griffith Arpt, Australia
Distance from station: WNW 308km
Updated: 06/04/2020 12:00
Mostly cloudy
Mostly cloudy
 Wind from WSW
Wind: WSW 13 km/h
Temperature: 18°C
Dew Point: 10°C
Humidity: 60%
Barometer: 1020 hPa
Clouds: Mostly cloudy
Visibility: 10 km
Cloud details: Partly cloudy 1067 m
Mostly cloudy 1280 m
Mostly cloudy 1433 m
2020/04/06 02:00 YGTH 060200Z AUTO 24007KT 9999 // SCT035 BKN042 BKN047 18/10 Q1020